sensor_id;sensor_type;location;lat;lon;timestamp;pressure;altitude;pressure_sealevel;temperature;humidity
45403;BME280;47427;51.976;5.326;2023-04-06T00:03:07;101760.06;;;4.56;67.62
45403;BME280;47427;51.976;5.326;2023-04-06T00:06:28;101764.34;;;4.55;67.90
45403;BME280;47427;51.976;5.326;2023-04-06T00:09:51;101767.94;;;4.57;67.97
45403;BME280;47427;51.976;5.326;2023-04-06T00:13:14;101763.75;;;4.46;68.50
45403;BME280;47427;51.976;5.326;2023-04-06T00:16:35;101739.38;;;4.31;68.82
45403;BME280;47427;51.976;5.326;2023-04-06T00:19:58;101746.06;;;4.27;69.31
45403;BME280;47427;51.976;5.326;2023-04-06T00:23:21;101758.25;;;4.28;69.60
45403;BME280;47427;51.976;5.326;2023-04-06T00:26:43;101760.44;;;4.22;69.59
45403;BME280;47427;51.976;5.326;2023-04-06T00:30:08;101752.75;;;4.10;69.95
45403;BME280;47427;51.976;5.326;2023-04-06T00:33:29;101758.91;;;4.12;70.16
45403;BME280;47427;51.976;5.326;2023-04-06T00:36:52;101747.13;;;4.04;70.31
45403;BME280;47427;51.976;5.326;2023-04-06T00:40:15;101743.13;;;4.09;70.16
45403;BME280;47427;51.976;5.326;2023-04-06T00:43:36;101716.34;;;3.97;69.75
45403;BME280;47427;51.976;5.326;2023-04-06T00:46:59;101746.44;;;4.07;70.08
45403;BME280;47427;51.976;5.326;2023-04-06T00:50:21;101700.06;;;3.86;69.70
45403;BME280;47427;51.976;5.326;2023-04-06T00:53:43;101731.16;;;4.11;69.83
45403;BME280;47427;51.976;5.326;2023-04-06T00:57:08;101707.28;;;4.04;69.09
45403;BME280;47427;51.976;5.326;2023-04-06T01:00:29;101725.06;;;4.24;69.13
45403;BME280;47427;51.976;5.326;2023-04-06T01:03:55;101724.56;;;4.30;68.28
45403;BME280;47427;51.976;5.326;2023-04-06T01:07:18;101716.19;;;4.34;67.75
45403;BME280;47427;51.976;5.326;2023-04-06T01:10:54;101681.34;;;4.30;67.32
45403;BME280;47427;51.976;5.326;2023-04-06T01:14:24;101697.91;;;4.46;66.73
45403;BME280;47427;51.976;5.326;2023-04-06T01:17:52;101682.41;;;4.47;66.41
45403;BME280;47427;51.976;5.326;2023-04-06T01:21:15;101685.97;;;4.63;66.01
45403;BME280;47427;51.976;5.326;2023-04-06T01:24:53;101672.91;;;4.48;65.77
45403;BME280;47427;51.976;5.326;2023-04-06T01:28:28;101684.09;;;4.60;65.37
45403;BME280;47427;51.976;5.326;2023-04-06T01:31:57;101679.66;;;4.72;65.16
45403;BME280;47427;51.976;5.326;2023-04-06T01:35:19;101682.34;;;4.87;64.71
45403;BME280;47427;51.976;5.326;2023-04-06T01:38:52;101692.50;;;4.97;64.42
45403;BME280;47427;51.976;5.326;2023-04-06T01:42:21;101677.66;;;5.10;64.64
45403;BME280;47427;51.976;5.326;2023-04-06T01:45:43;101656.47;;;5.04;63.95
45403;BME280;47427;51.976;5.326;2023-04-06T01:49:12;101650.53;;;5.06;63.37
45403;BME280;47427;51.976;5.326;2023-04-06T01:52:54;101665.66;;;5.12;63.07
45403;BME280;47427;51.976;5.326;2023-04-06T01:56:17;101659.03;;;5.17;63.01
45403;BME280;47427;51.976;5.326;2023-04-06T01:59:49;101668.78;;;5.21;62.80
45403;BME280;47427;51.976;5.326;2023-04-06T02:03:17;101649.50;;;5.17;62.65
45403;BME280;47427;51.976;5.326;2023-04-06T02:07:00;101642.00;;;5.22;62.52
45403;BME280;47427;51.976;5.326;2023-04-06T02:10:24;101637.94;;;5.12;62.34
45403;BME280;47427;51.976;5.326;2023-04-06T02:13:47;101639.81;;;5.15;62.13
45403;BME280;47427;51.976;5.326;2023-04-06T02:17:36;101608.69;;;5.02;61.93
45403;BME280;47427;51.976;5.326;2023-04-06T02:20:59;101632.47;;;5.22;62.02
45403;BME280;47427;51.976;5.326;2023-04-06T02:24:23;101634.09;;;5.20;62.12
45403;BME280;47427;51.976;5.326;2023-04-06T02:27:45;101626.91;;;5.31;61.30
45403;BME280;47427;51.976;5.326;2023-04-06T02:31:08;101622.78;;;5.20;61.52
45403;BME280;47427;51.976;5.326;2023-04-06T02:34:30;101609.69;;;5.18;61.65
45403;BME280;47427;51.976;5.326;2023-04-06T02:37:52;101612.09;;;5.15;61.29
45403;BME280;47427;51.976;5.326;2023-04-06T02:41:15;101608.06;;;5.20;61.39
45403;BME280;47427;51.976;5.326;2023-04-06T02:44:37;101608.38;;;5.40;61.14
45403;BME280;47427;51.976;5.326;2023-04-06T02:47:59;101612.03;;;5.43;61.46
45403;BME280;47427;51.976;5.326;2023-04-06T02:51:24;101598.31;;;5.46;61.14
45403;BME280;47427;51.976;5.326;2023-04-06T02:54:52;101608.53;;;5.28;61.82
45403;BME280;47427;51.976;5.326;2023-04-06T02:58:20;101597.50;;;5.32;62.05
45403;BME280;47427;51.976;5.326;2023-04-06T03:01:49;101596.97;;;5.38;62.06
45403;BME280;47427;51.976;5.326;2023-04-06T03:05:12;101583.25;;;5.40;62.14
45403;BME280;47427;51.976;5.326;2023-04-06T03:08:37;101597.53;;;5.47;61.43
45403;BME280;47427;51.976;5.326;2023-04-06T03:12:00;101594.91;;;5.47;61.91
45403;BME280;47427;51.976;5.326;2023-04-06T03:15:23;101594.91;;;5.32;62.42
45403;BME280;47427;51.976;5.326;2023-04-06T03:18:51;101573.34;;;5.20;62.72
45403;BME280;47427;51.976;5.326;2023-04-06T03:22:32;101590.84;;;5.22;62.96
45403;BME280;47427;51.976;5.326;2023-04-06T03:25:57;101580.00;;;5.30;63.23
45403;BME280;47427;51.976;5.326;2023-04-06T03:29:38;101567.44;;;5.22;63.32
45403;BME280;47427;51.976;5.326;2023-04-06T03:33:03;101543.72;;;5.03;63.61
45403;BME280;47427;51.976;5.326;2023-04-06T03:36:31;101535.59;;;4.97;63.59
45403;BME280;47427;51.976;5.326;2023-04-06T03:39:55;101569.13;;;5.07;64.29
45403;BME280;47427;51.976;5.326;2023-04-06T03:43:19;101552.22;;;4.86;64.49
45403;BME280;47427;51.976;5.326;2023-04-06T03:46:40;101571.44;;;5.03;64.98
45403;BME280;47427;51.976;5.326;2023-04-06T03:50:06;101569.66;;;5.02;64.78
45403;BME280;47427;51.976;5.326;2023-04-06T03:53:30;101576.28;;;4.96;64.81
45403;BME280;47427;51.976;5.326;2023-04-06T03:56:53;101568.47;;;4.82;65.61
45403;BME280;47427;51.976;5.326;2023-04-06T04:00:15;101559.03;;;4.69;66.32
45403;BME280;47427;51.976;5.326;2023-04-06T04:03:37;101565.56;;;4.77;66.02
45403;BME280;47427;51.976;5.326;2023-04-06T04:07:01;101572.66;;;4.80;65.96
45403;BME280;47427;51.976;5.326;2023-04-06T04:10:22;101554.19;;;4.75;66.07
45403;BME280;47427;51.976;5.326;2023-04-06T04:13:45;101566.22;;;4.88;65.88
45403;BME280;47427;51.976;5.326;2023-04-06T04:17:08;101570.47;;;5.00;65.65
45403;BME280;47427;51.976;5.326;2023-04-06T04:20:29;101560.47;;;4.93;66.18
45403;BME280;47427;51.976;5.326;2023-04-06T04:23:52;101554.84;;;5.00;66.01
45403;BME280;47427;51.976;5.326;2023-04-06T04:27:15;101560.47;;;4.93;66.66
45403;BME280;47427;51.976;5.326;2023-04-06T04:30:37;101555.28;;;4.93;66.87
45403;BME280;47427;51.976;5.326;2023-04-06T04:34:04;101556.56;;;5.00;66.65
45403;BME280;47427;51.976;5.326;2023-04-06T04:37:29;101542.28;;;4.93;66.55
45403;BME280;47427;51.976;5.326;2023-04-06T04:41:11;101543.38;;;4.97;66.66
45403;BME280;47427;51.976;5.326;2023-04-06T04:44:35;101539.75;;;4.80;67.30
45403;BME280;47427;51.976;5.326;2023-04-06T04:47:58;101566.84;;;4.98;67.57
45403;BME280;47427;51.976;5.326;2023-04-06T04:51:26;101524.63;;;4.88;66.85
45403;BME280;47427;51.976;5.326;2023-04-06T04:55:12;101562.13;;;5.21;66.48
45403;BME280;47427;51.976;5.326;2023-04-06T04:58:33;101561.84;;;5.16;67.13
45403;BME280;47427;51.976;5.326;2023-04-06T05:01:57;101559.34;;;5.18;66.97
45403;BME280;47427;51.976;5.326;2023-04-06T05:05:29;101546.00;;;5.12;67.29
45403;BME280;47427;51.976;5.326;2023-04-06T05:08:52;101536.94;;;5.20;66.97
45403;BME280;47427;51.976;5.326;2023-04-06T05:12:18;101554.88;;;5.30;66.90
45403;BME280;47427;51.976;5.326;2023-04-06T05:15:51;101555.44;;;5.39;66.91
45403;BME280;47427;51.976;5.326;2023-04-06T05:19:26;101549.13;;;5.36;67.21
45403;BME280;47427;51.976;5.326;2023-04-06T05:22:48;101522.66;;;5.28;67.42
45403;BME280;47427;51.976;5.326;2023-04-06T05:26:10;101524.38;;;5.28;67.28
45403;BME280;47427;51.976;5.326;2023-04-06T05:29:34;101545.81;;;5.53;66.88
45403;BME280;47427;51.976;5.326;2023-04-06T05:32:57;101540.78;;;5.56;66.93
45403;BME280;47427;51.976;5.326;2023-04-06T05:36:27;101519.78;;;5.53;67.00
45403;BME280;47427;51.976;5.326;2023-04-06T05:40:10;101518.28;;;5.42;67.12
45403;BME280;47427;51.976;5.326;2023-04-06T05:43:32;101531.06;;;5.69;66.89
45403;BME280;47427;51.976;5.326;2023-04-06T05:46:55;101534.47;;;5.82;66.63
45403;BME280;47427;51.976;5.326;2023-04-06T05:50:16;101513.53;;;5.81;66.77
45403;BME280;47427;51.976;5.326;2023-04-06T05:53:59;101522.41;;;5.84;66.97
45403;BME280;47427;51.976;5.326;2023-04-06T05:57:23;101522.50;;;5.86;67.17
45403;BME280;47427;51.976;5.326;2023-04-06T06:00:45;101514.78;;;5.88;66.93
45403;BME280;47427;51.976;5.326;2023-04-06T06:04:11;101468.03;;;5.74;66.90
45403;BME280;47427;51.976;5.326;2023-04-06T06:07:35;101532.91;;;6.01;67.27
45403;BME280;47427;51.976;5.326;2023-04-06T06:10:57;101522.09;;;6.10;67.08
45403;BME280;47427;51.976;5.326;2023-04-06T06:14:20;101538.19;;;6.34;65.79
45403;BME280;47427;51.976;5.326;2023-04-06T06:17:43;101513.75;;;6.32;65.28
45403;BME280;47427;51.976;5.326;2023-04-06T06:21:06;101540.63;;;6.47;64.80
45403;BME280;47427;51.976;5.326;2023-04-06T06:24:29;101529.31;;;6.63;64.73
45403;BME280;47427;51.976;5.326;2023-04-06T06:27:52;101537.03;;;6.94;64.48
45403;BME280;47427;51.976;5.326;2023-04-06T06:31:15;101520.88;;;7.01;63.44
45403;BME280;47427;51.976;5.326;2023-04-06T06:34:39;101539.19;;;7.19;63.14
45403;BME280;47427;51.976;5.326;2023-04-06T06:38:02;101534.88;;;7.20;63.52
45403;BME280;47427;51.976;5.326;2023-04-06T06:41:26;101548.81;;;7.20;64.09
45403;BME280;47427;51.976;5.326;2023-04-06T06:44:50;101544.97;;;7.48;63.58
45403;BME280;47427;51.976;5.326;2023-04-06T06:48:13;101552.06;;;8.04;62.66
45403;BME280;47427;51.976;5.326;2023-04-06T06:51:36;101538.56;;;8.13;61.42
45403;BME280;47427;51.976;5.326;2023-04-06T06:54:59;101525.72;;;7.81;62.11
45403;BME280;47427;51.976;5.326;2023-04-06T06:58:20;101527.31;;;7.78;62.28
45403;BME280;47427;51.976;5.326;2023-04-06T07:01:43;101520.78;;;7.52;62.53
45403;BME280;47427;51.976;5.326;2023-04-06T07:05:06;101493.63;;;7.12;63.46
45403;BME280;47427;51.976;5.326;2023-04-06T07:08:28;101521.34;;;7.10;64.34
45403;BME280;47427;51.976;5.326;2023-04-06T07:11:50;101515.72;;;7.19;64.45
45403;BME280;47427;51.976;5.326;2023-04-06T07:15:12;101514.97;;;7.22;65.11
45403;BME280;47427;51.976;5.326;2023-04-06T07:18:35;101522.06;;;7.24;65.62
45403;BME280;47427;51.976;5.326;2023-04-06T07:21:58;101517.44;;;7.36;65.01
45403;BME280;47427;51.976;5.326;2023-04-06T07:25:21;101513.88;;;7.34;65.65
45403;BME280;47427;51.976;5.326;2023-04-06T07:28:44;101501.72;;;7.35;65.54
45403;BME280;47427;51.976;5.326;2023-04-06T07:32:08;101512.16;;;7.71;64.68
45403;BME280;47427;51.976;5.326;2023-04-06T07:35:30;101503.88;;;7.62;64.69
45403;BME280;47427;51.976;5.326;2023-04-06T07:38:53;101524.19;;;7.67;63.83
45403;BME280;47427;51.976;5.326;2023-04-06T07:42:18;101516.88;;;7.78;64.31
45403;BME280;47427;51.976;5.326;2023-04-06T07:45:41;101507.81;;;7.89;63.74
45403;BME280;47427;51.976;5.326;2023-04-06T07:49:04;101516.41;;;8.24;62.98
45403;BME280;47427;51.976;5.326;2023-04-06T07:52:28;101505.34;;;8.10;62.99
45403;BME280;47427;51.976;5.326;2023-04-06T07:55:51;101506.31;;;8.32;61.92
45403;BME280;47427;51.976;5.326;2023-04-06T07:59:14;101517.59;;;8.49;62.34
45403;BME280;47427;51.976;5.326;2023-04-06T08:02:36;101489.50;;;8.64;61.40
45403;BME280;47427;51.976;5.326;2023-04-06T08:05:58;101510.34;;;8.82;61.07
45403;BME280;47427;51.976;5.326;2023-04-06T08:09:21;101510.53;;;8.86;60.67
45403;BME280;47427;51.976;5.326;2023-04-06T08:12:44;101518.53;;;9.10;60.61
45403;BME280;47427;51.976;5.326;2023-04-06T08:16:07;101501.84;;;9.28;60.23
45403;BME280;47427;51.976;5.326;2023-04-06T08:19:28;101514.53;;;9.19;60.49
45403;BME280;47427;51.976;5.326;2023-04-06T08:22:51;101506.31;;;9.09;60.23
45403;BME280;47427;51.976;5.326;2023-04-06T08:26:13;101510.38;;;9.24;60.29
45403;BME280;47427;51.976;5.326;2023-04-06T08:29:35;101516.25;;;9.60;59.45
45403;BME280;47427;51.976;5.326;2023-04-06T08:32:58;101483.97;;;9.61;58.07
45403;BME280;47427;51.976;5.326;2023-04-06T08:36:20;101498.28;;;9.92;57.18
45403;BME280;47427;51.976;5.326;2023-04-06T08:39:45;101506.53;;;10.01;58.37
45403;BME280;47427;51.976;5.326;2023-04-06T08:43:12;101519.28;;;10.14;57.14
45403;BME280;47427;51.976;5.326;2023-04-06T08:46:34;101515.72;;;10.35;56.95
45403;BME280;47427;51.976;5.326;2023-04-06T08:49:57;101505.94;;;10.08;57.79
45403;BME280;47427;51.976;5.326;2023-04-06T08:53:21;101519.69;;;10.25;57.46
45403;BME280;47427;51.976;5.326;2023-04-06T08:56:43;101501.59;;;10.09;57.91
45403;BME280;47427;51.976;5.326;2023-04-06T09:00:09;101510.81;;;9.99;57.76
45403;BME280;47427;51.976;5.326;2023-04-06T09:03:31;101510.34;;;10.09;57.53
45403;BME280;47427;51.976;5.326;2023-04-06T09:06:57;101520.94;;;10.12;57.82
45403;BME280;47427;51.976;5.326;2023-04-06T09:10:20;101519.13;;;10.32;58.26
45403;BME280;47427;51.976;5.326;2023-04-06T09:13:50;101508.63;;;10.32;58.17
45403;BME280;47427;51.976;5.326;2023-04-06T09:17:25;101516.72;;;9.93;58.99
45403;BME280;47427;51.976;5.326;2023-04-06T09:21:06;101518.16;;;9.85;59.19
45403;BME280;47427;51.976;5.326;2023-04-06T09:24:49;101525.28;;;9.89;59.01
45403;BME280;47427;51.976;5.326;2023-04-06T09:28:11;101520.88;;;9.88;59.39
45403;BME280;47427;51.976;5.326;2023-04-06T09:31:34;101515.88;;;9.94;59.36
45403;BME280;47427;51.976;5.326;2023-04-06T09:35:08;101522.69;;;10.34;59.02
45403;BME280;47427;51.976;5.326;2023-04-06T09:38:29;101528.50;;;10.27;59.06
45403;BME280;47427;51.976;5.326;2023-04-06T09:41:53;101515.56;;;10.54;58.52
45403;BME280;47427;51.976;5.326;2023-04-06T09:45:16;101510.72;;;10.89;57.91
45403;BME280;47427;51.976;5.326;2023-04-06T09:48:38;101512.03;;;11.02;57.53
45403;BME280;47427;51.976;5.326;2023-04-06T09:52:04;101494.13;;;11.16;57.79
45403;BME280;47427;51.976;5.326;2023-04-06T09:55:41;101502.06;;;11.70;57.25
45403;BME280;47427;51.976;5.326;2023-04-06T09:59:11;101510.75;;;12.23;56.67
45403;BME280;47427;51.976;5.326;2023-04-06T10:02:56;101519.00;;;12.07;57.53
45403;BME280;47427;51.976;5.326;2023-04-06T10:06:23;101520.88;;;11.04;63.13
45403;BME280;47427;51.976;5.326;2023-04-06T10:09:48;101503.78;;;10.43;67.12
45403;BME280;47427;51.976;5.326;2023-04-06T10:13:11;101512.59;;;10.23;69.17
45403;BME280;47427;51.976;5.326;2023-04-06T10:16:35;101524.09;;;10.04;71.92
45403;BME280;47427;51.976;5.326;2023-04-06T10:20:12;101517.00;;;9.79;75.16
45403;BME280;47427;51.976;5.326;2023-04-06T10:23:47;101532.63;;;9.54;76.94
45403;BME280;47427;51.976;5.326;2023-04-06T10:27:09;101515.78;;;9.27;81.40
45403;BME280;47427;51.976;5.326;2023-04-06T10:30:33;101519.53;;;8.93;84.29
45403;BME280;47427;51.976;5.326;2023-04-06T10:34:01;101528.22;;;8.53;92.66
45403;BME280;47427;51.976;5.326;2023-04-06T10:37:24;101530.91;;;8.55;97.32
45403;BME280;47427;51.976;5.326;2023-04-06T10:40:46;101536.44;;;8.41;100.00
45403;BME280;47427;51.976;5.326;2023-04-06T10:44:22;101525.53;;;8.14;100.00
45403;BME280;47427;51.976;5.326;2023-04-06T10:47:43;101516.84;;;7.96;100.00
45403;BME280;47427;51.976;5.326;2023-04-06T10:51:16;101524.53;;;8.11;100.00
45403;BME280;47427;51.976;5.326;2023-04-06T10:54:42;101529.16;;;8.36;100.00
45403;BME280;47427;51.976;5.326;2023-04-06T10:58:07;101507.19;;;8.32;100.00
45403;BME280;47427;51.976;5.326;2023-04-06T11:01:29;101523.19;;;8.38;100.00
45403;BME280;47427;51.976;5.326;2023-04-06T11:04:56;101516.41;;;8.24;100.00
45403;BME280;47427;51.976;5.326;2023-04-06T11:08:31;101490.13;;;8.21;100.00
45403;BME280;47427;51.976;5.326;2023-04-06T11:11:55;101512.78;;;8.02;100.00
45403;BME280;47427;51.976;5.326;2023-04-06T11:15:17;101484.75;;;7.98;100.00
45403;BME280;47427;51.976;5.326;2023-04-06T11:18:51;101497.63;;;8.33;100.00
45403;BME280;47427;51.976;5.326;2023-04-06T11:22:13;101504.22;;;8.42;100.00
45403;BME280;47427;51.976;5.326;2023-04-06T11:25:36;101495.19;;;8.36;100.00
45403;BME280;47427;51.976;5.326;2023-04-06T11:28:58;101497.84;;;8.37;100.00
45403;BME280;47427;51.976;5.326;2023-04-06T11:32:21;101493.25;;;8.32;100.00
45403;BME280;47427;51.976;5.326;2023-04-06T11:35:45;101485.63;;;8.56;100.00
45403;BME280;47427;51.976;5.326;2023-04-06T11:39:09;101459.63;;;8.39;100.00
45403;BME280;47427;51.976;5.326;2023-04-06T11:42:34;101479.91;;;8.64;100.00
45403;BME280;47427;51.976;5.326;2023-04-06T11:46:03;101462.56;;;8.66;100.00
45403;BME280;47427;51.976;5.326;2023-04-06T11:53:12;101450.06;;;8.59;100.00
45403;BME280;47427;51.976;5.326;2023-04-06T11:56:35;101456.38;;;8.64;100.00
45403;BME280;47427;51.976;5.326;2023-04-06T11:59:56;101459.56;;;8.78;100.00
45403;BME280;47427;51.976;5.326;2023-04-06T12:03:19;101456.84;;;8.75;100.00
45403;BME280;47427;51.976;5.326;2023-04-06T12:06:41;101453.31;;;8.54;100.00
45403;BME280;47427;51.976;5.326;2023-04-06T12:10:04;101458.03;;;8.62;100.00
45403;BME280;47427;51.976;5.326;2023-04-06T12:13:46;101437.59;;;9.15;100.00
45403;BME280;47427;51.976;5.326;2023-04-06T12:17:08;101429.03;;;9.19;100.00
45403;BME280;47427;51.976;5.326;2023-04-06T12:20:31;101448.16;;;9.60;100.00
45403;BME280;47427;51.976;5.326;2023-04-06T12:23:53;101436.16;;;9.67;100.00
45403;BME280;47427;51.976;5.326;2023-04-06T12:27:15;101445.84;;;9.47;100.00
45403;BME280;47427;51.976;5.326;2023-04-06T12:30:38;101445.00;;;9.04;100.00
45403;BME280;47427;51.976;5.326;2023-04-06T12:34:00;101440.78;;;8.87;100.00
45403;BME280;47427;51.976;5.326;2023-04-06T12:37:24;101435.97;;;8.77;100.00
45403;BME280;47427;51.976;5.326;2023-04-06T12:40:47;101438.53;;;8.75;100.00
45403;BME280;47427;51.976;5.326;2023-04-06T12:44:08;101427.06;;;8.52;100.00
45403;BME280;47427;51.976;5.326;2023-04-06T12:47:31;101432.69;;;8.22;100.00
45403;BME280;47427;51.976;5.326;2023-04-06T12:51:01;101437.19;;;8.44;100.00
45403;BME280;47427;51.976;5.326;2023-04-06T12:54:25;101419.34;;;8.36;100.00
45403;BME280;47427;51.976;5.326;2023-04-06T12:57:49;101425.06;;;8.27;100.00
45403;BME280;47427;51.976;5.326;2023-04-06T13:01:11;101424.44;;;8.13;100.00
45403;BME280;47427;51.976;5.326;2023-04-06T13:04:35;101418.47;;;8.16;100.00
45403;BME280;47427;51.976;5.326;2023-04-06T13:07:58;101421.75;;;8.12;100.00
45403;BME280;47427;51.976;5.326;2023-04-06T13:11:20;101418.56;;;7.99;100.00
45403;BME280;47427;51.976;5.326;2023-04-06T13:14:46;101401.72;;;7.73;100.00
45403;BME280;47427;51.976;5.326;2023-04-06T13:18:12;101405.78;;;7.86;100.00
45403;BME280;47427;51.976;5.326;2023-04-06T13:21:34;101393.38;;;7.82;100.00
45403;BME280;47427;51.976;5.326;2023-04-06T13:24:57;101403.03;;;8.02;100.00
45403;BME280;47427;51.976;5.326;2023-04-06T13:28:18;101404.81;;;7.84;100.00
45403;BME280;47427;51.976;5.326;2023-04-06T13:31:41;101386.78;;;7.71;100.00
45403;BME280;47427;51.976;5.326;2023-04-06T13:35:04;101397.81;;;7.83;100.00
45403;BME280;47427;51.976;5.326;2023-04-06T13:38:29;101400.28;;;7.80;100.00
45403;BME280;47427;51.976;5.326;2023-04-06T13:41:54;101397.72;;;7.81;100.00
45403;BME280;47427;51.976;5.326;2023-04-06T13:45:17;101397.03;;;8.05;100.00
45403;BME280;47427;51.976;5.326;2023-04-06T13:48:40;101391.28;;;7.93;100.00
45403;BME280;47427;51.976;5.326;2023-04-06T13:52:03;101370.03;;;7.85;100.00
45403;BME280;47427;51.976;5.326;2023-04-06T13:55:25;101369.34;;;7.89;100.00
45403;BME280;47427;51.976;5.326;2023-04-06T13:58:48;101379.78;;;7.89;100.00
45403;BME280;47427;51.976;5.326;2023-04-06T14:05:34;101371.94;;;7.89;100.00
45403;BME280;47427;51.976;5.326;2023-04-06T14:09:21;101365.91;;;7.71;100.00
45403;BME280;47427;51.976;5.326;2023-04-06T14:12:43;101374.56;;;7.70;100.00
45403;BME280;47427;51.976;5.326;2023-04-06T14:16:06;101369.25;;;7.68;100.00
45403;BME280;47427;51.976;5.326;2023-04-06T14:19:48;101365.94;;;7.53;100.00
45403;BME280;47427;51.976;5.326;2023-04-06T14:23:11;101371.38;;;7.57;100.00
45403;BME280;47427;51.976;5.326;2023-04-06T14:26:38;101365.41;;;7.60;100.00
45403;BME280;47427;51.976;5.326;2023-04-06T14:30:01;101366.00;;;7.54;100.00
45403;BME280;47427;51.976;5.326;2023-04-06T14:33:23;101359.38;;;7.43;100.00
45403;BME280;47427;51.976;5.326;2023-04-06T14:36:46;101356.25;;;7.50;100.00
45403;BME280;47427;51.976;5.326;2023-04-06T14:40:08;101364.81;;;7.48;100.00
45403;BME280;47427;51.976;5.326;2023-04-06T14:43:31;101360.22;;;7.42;100.00
45403;BME280;47427;51.976;5.326;2023-04-06T14:46:53;101351.03;;;7.50;100.00
45403;BME280;47427;51.976;5.326;2023-04-06T14:50:15;101354.84;;;7.39;100.00
45403;BME280;47427;51.976;5.326;2023-04-06T14:53:38;101353.41;;;7.46;100.00
45403;BME280;47427;51.976;5.326;2023-04-06T14:57:01;101346.03;;;7.74;100.00
45403;BME280;47427;51.976;5.326;2023-04-06T15:00:23;101345.28;;;7.57;100.00
45403;BME280;47427;51.976;5.326;2023-04-06T15:03:46;101349.34;;;7.70;100.00
45403;BME280;47427;51.976;5.326;2023-04-06T15:07:07;101339.97;;;7.56;100.00
45403;BME280;47427;51.976;5.326;2023-04-06T15:10:33;101345.63;;;7.65;100.00
45403;BME280;47427;51.976;5.326;2023-04-06T15:13:55;101342.66;;;7.57;100.00
45403;BME280;47427;51.976;5.326;2023-04-06T15:17:17;101330.50;;;7.58;100.00
45403;BME280;47427;51.976;5.326;2023-04-06T15:20:40;101343.91;;;7.66;100.00
45403;BME280;47427;51.976;5.326;2023-04-06T15:24:03;101325.47;;;7.63;100.00
45403;BME280;47427;51.976;5.326;2023-04-06T15:27:27;101325.13;;;7.55;100.00
45403;BME280;47427;51.976;5.326;2023-04-06T15:30:50;101330.72;;;7.63;100.00
45403;BME280;47427;51.976;5.326;2023-04-06T15:34:11;101328.84;;;7.60;100.00
45403;BME280;47427;51.976;5.326;2023-04-06T15:37:34;101321.59;;;7.35;100.00
45403;BME280;47427;51.976;5.326;2023-04-06T15:40:56;101322.69;;;7.40;100.00
45403;BME280;47427;51.976;5.326;2023-04-06T15:44:18;101323.69;;;7.42;100.00
45403;BME280;47427;51.976;5.326;2023-04-06T15:47:42;101311.56;;;7.44;100.00
45403;BME280;47427;51.976;5.326;2023-04-06T15:51:05;101312.84;;;7.52;100.00
45403;BME280;47427;51.976;5.326;2023-04-06T15:54:27;101316.78;;;7.44;100.00
45403;BME280;47427;51.976;5.326;2023-04-06T15:57:50;101312.13;;;7.56;100.00
45403;BME280;47427;51.976;5.326;2023-04-06T16:01:18;101318.50;;;7.44;100.00
45403;BME280;47427;51.976;5.326;2023-04-06T16:08:25;101310.44;;;7.39;100.00
45403;BME280;47427;51.976;5.326;2023-04-06T16:11:47;101320.94;;;7.58;100.00
45403;BME280;47427;51.976;5.326;2023-04-06T16:15:10;101314.38;;;7.49;100.00
45403;BME280;47427;51.976;5.326;2023-04-06T16:18:32;101316.19;;;7.50;100.00
45403;BME280;47427;51.976;5.326;2023-04-06T16:21:55;101311.44;;;7.41;100.00
45403;BME280;47427;51.976;5.326;2023-04-06T16:25:19;101312.47;;;7.45;100.00
45403;BME280;47427;51.976;5.326;2023-04-06T16:28:41;101305.41;;;7.42;100.00
45403;BME280;47427;51.976;5.326;2023-04-06T16:32:04;101306.81;;;7.35;100.00
45403;BME280;47427;51.976;5.326;2023-04-06T16:35:27;101300.84;;;7.38;100.00
45403;BME280;47427;51.976;5.326;2023-04-06T16:38:50;101300.75;;;7.36;100.00
45403;BME280;47427;51.976;5.326;2023-04-06T16:42:12;101304.66;;;7.45;100.00
45403;BME280;47427;51.976;5.326;2023-04-06T16:45:36;101305.59;;;7.47;100.00
45403;BME280;47427;51.976;5.326;2023-04-06T16:49:00;101301.94;;;7.43;100.00
45403;BME280;47427;51.976;5.326;2023-04-06T16:52:23;101300.22;;;7.44;100.00
45403;BME280;47427;51.976;5.326;2023-04-06T16:55:45;101295.75;;;7.41;100.00
45403;BME280;47427;51.976;5.326;2023-04-06T16:59:08;101293.59;;;7.50;100.00
45403;BME280;47427;51.976;5.326;2023-04-06T17:02:31;101292.47;;;7.45;100.00
45403;BME280;47427;51.976;5.326;2023-04-06T17:05:56;101294.59;;;7.34;100.00
45403;BME280;47427;51.976;5.326;2023-04-06T17:09:18;101284.34;;;7.39;100.00
45403;BME280;47427;51.976;5.326;2023-04-06T17:12:40;101288.97;;;7.45;100.00
45403;BME280;47427;51.976;5.326;2023-04-06T17:16:03;101282.94;;;7.46;100.00
45403;BME280;47427;51.976;5.326;2023-04-06T17:19:25;101287.25;;;7.45;100.00
45403;BME280;47427;51.976;5.326;2023-04-06T17:22:47;101273.16;;;7.42;100.00
45403;BME280;47427;51.976;5.326;2023-04-06T17:26:11;101282.53;;;7.56;100.00
45403;BME280;47427;51.976;5.326;2023-04-06T17:29:35;101272.97;;;7.56;100.00
45403;BME280;47427;51.976;5.326;2023-04-06T17:32:58;101284.09;;;7.52;100.00
45403;BME280;47427;51.976;5.326;2023-04-06T17:36:21;101277.50;;;7.60;100.00
45403;BME280;47427;51.976;5.326;2023-04-06T17:39:42;101278.19;;;7.56;100.00
45403;BME280;47427;51.976;5.326;2023-04-06T17:43:24;101281.97;;;7.63;100.00
45403;BME280;47427;51.976;5.326;2023-04-06T17:46:45;101285.56;;;7.65;100.00
45403;BME280;47427;51.976;5.326;2023-04-06T17:50:07;101287.41;;;7.68;100.00
45403;BME280;47427;51.976;5.326;2023-04-06T17:53:30;101297.22;;;7.73;100.00
45403;BME280;47427;51.976;5.326;2023-04-06T17:56:53;101298.19;;;7.75;100.00
45403;BME280;47427;51.976;5.326;2023-04-06T18:00:16;101295.13;;;7.65;100.00
45403;BME280;47427;51.976;5.326;2023-04-06T18:03:41;101295.72;;;7.78;100.00
45403;BME280;47427;51.976;5.326;2023-04-06T18:07:03;101293.97;;;7.59;100.00
45403;BME280;47427;51.976;5.326;2023-04-06T18:10:26;101294.50;;;7.70;100.00